Liberal, KS (67901)

10:31 AM CDT on September 30, 2016 (GMT -0500)
Bozarth Farm 3.5E Liberal | | Change Station

Elev 2785 ft 37.02 °N, 100.86 °W | Updated 13 minutes ago

Clear
Clear
62.4 °F
Feels Like 62.4 °F
N
9.0
Wind Variable Wind from SSE
Gusts 13.0 mph

Today
High -- | Low -- °F
--% Chance of Precip.
Yesterday
High -- | Low -- °F
Precip. -- in
Pressure 30.25 in
Visibility 10.0 miles
Clouds Clear
Dew Point 49 °F
Humidity 63%
Rainfall 0.00 in
Snow Depth Not available.
7:38 AM 7:27 PM
Waning Crescent, 0% visible
METAR KLBL 301515Z 16013KT 10SM CLR 17/09 A3025 RMK AO1
Pressure 30.25 in
Visibility 10.0 miles
Clouds Clear
Dew Point 49 °F
Humidity 63%
Rainfall 0.00 in
Snow Depth Not available.
7:38 AM 7:27 PM
Waning Crescent, 0% visible
METAR KLBL 301515Z 16013KT 10SM CLR 17/09 A3025 RMK AO1

10-Day Weather Forecast

Almanac

Astronomy

Sep. 30, 2016 Rise Set
Actual Time
Civil Twilight
Nautical Twilight
Astronomical Twilight
Moon
Length of Visible Light
Length of Day
Tomorrow will be .
, % of the Moon is Illuminated

Today's Extremes

State Highs State Lows

Community

WunderPhotos

Upload Photos

1,942,738 photos uploaded!

WunderBlog® & News

Nearby

Air Quality

  Air Quality AQ Index Pollutant
Not available.

Snow Depth

Station Depth Elevation

Earthquake Activity

City Distance Mag. Time & Date
Minimum magnitude displayed is 2.5.

Coastal Water Temperatures

Place Temperature

Stations

Nearby Weather Stations

Station Location Temp. Windchill Dew Point Humidity Wind Precip. Elev Updated Type
                   

Watches & Warnings

There are currently no watches in effect.